createdAt,value
2019-04-10T00:00:47.593Z,38.80
2019-04-10T00:03:28.157Z,38.80
2019-04-10T00:05:49.935Z,38.80
2019-04-10T00:08:19.881Z,38.90
2019-04-10T00:10:49.537Z,38.80
2019-04-10T00:13:19.094Z,38.80
2019-04-10T00:15:48.754Z,38.80
2019-04-10T00:18:18.421Z,38.70
2019-04-10T00:20:48.981Z,38.70
2019-04-10T00:23:19.281Z,38.80
2019-04-10T00:25:48.919Z,38.80
2019-04-10T00:28:23.888Z,38.80
2019-04-10T00:34:05.754Z,39.40
2019-04-10T00:36:35.284Z,38.70
2019-04-10T00:39:06.884Z,38.80
2019-04-10T00:41:36.589Z,38.80
2019-04-10T00:44:06.281Z,38.80
2019-04-10T00:46:35.814Z,38.80
2019-04-10T00:49:05.407Z,38.70
2019-04-10T00:51:35.210Z,38.80
2019-04-10T00:54:05.676Z,38.90
2019-04-10T00:56:35.355Z,38.80
2019-04-10T00:59:05.916Z,38.70
2019-04-10T01:01:36.143Z,38.80
2019-04-10T01:04:07.086Z,38.30
2019-04-10T01:06:37.668Z,38.80
2019-04-10T01:09:09.635Z,38.80
2019-04-10T01:11:39.345Z,38.80
2019-04-10T01:14:09.636Z,38.80
2019-04-10T01:16:39.776Z,38.80
2019-04-10T01:19:09.966Z,38.90
2019-04-10T01:21:40.059Z,38.80
2019-04-10T01:24:09.714Z,38.90
2019-04-10T01:26:39.371Z,38.80
2019-04-10T01:29:09.309Z,38.80
2019-04-10T01:31:39.397Z,38.90
2019-04-10T01:34:09.471Z,38.90
2019-04-10T01:36:39.449Z,39.00
2019-04-10T01:39:11.094Z,38.90
2019-04-10T01:41:41.745Z,39.00
2019-04-10T01:44:11.370Z,39.10
2019-04-10T01:46:42.330Z,39.00
2019-04-10T01:49:13.500Z,39.00
2019-04-10T01:51:44.134Z,39.10
2019-04-10T01:54:13.653Z,39.10
2019-04-10T01:56:43.840Z,39.00
2019-04-10T01:59:13.868Z,39.10
2019-04-10T02:01:53.655Z,39.20
2019-04-10T02:04:23.522Z,39.10
2019-04-10T02:06:53.783Z,39.20
2019-04-10T02:09:23.466Z,39.20
2019-04-10T02:11:54.359Z,39.20
2019-04-10T02:14:24.533Z,39.30
2019-04-10T02:16:54.915Z,39.40
2019-04-10T02:19:24.479Z,39.30
2019-04-10T02:21:54.168Z,39.30
2019-04-10T02:24:25.200Z,39.40
2019-04-10T02:26:56.030Z,39.40
2019-04-10T02:29:26.017Z,39.40
2019-04-10T02:31:57.180Z,39.50
2019-04-10T02:34:28.313Z,39.40
2019-04-10T02:36:58.636Z,39.50
2019-04-10T02:39:37.433Z,39.40
2019-04-10T02:42:00.539Z,39.40
2019-04-10T02:44:30.663Z,39.40
2019-04-10T02:47:02.101Z,39.40
2019-04-10T02:49:32.177Z,39.40
2019-04-10T02:52:01.827Z,39.30
2019-04-10T02:54:31.435Z,39.40
2019-04-10T02:57:01.081Z,39.20
2019-04-10T02:59:31.028Z,39.20
2019-04-10T03:02:02.304Z,39.20
2019-04-10T03:04:33.023Z,39.20
2019-04-10T03:07:04.302Z,39.10
2019-04-10T03:09:49.440Z,39.10
2019-04-10T03:12:08.533Z,39.10
2019-04-10T03:14:39.234Z,39.00
2019-04-10T03:17:10.098Z,39.10
2019-04-10T03:19:39.958Z,39.00
2019-04-10T03:22:10.459Z,38.90
2019-04-10T03:24:40.184Z,39.10
2019-04-10T03:27:10.146Z,39.00
2019-04-10T03:29:40.006Z,38.90
2019-04-10T03:32:31.057Z,38.80
2019-04-10T03:35:02.885Z,38.80
2019-04-10T03:37:34.085Z,38.80
2019-04-10T03:40:04.888Z,38.70
2019-04-10T03:42:34.593Z,38.70
2019-04-10T03:45:05.510Z,38.60
2019-04-10T03:47:35.623Z,38.60
2019-04-10T03:50:05.147Z,38.40
2019-04-10T03:52:35.655Z,38.30
2019-04-10T03:55:05.474Z,38.40
2019-04-10T03:57:34.989Z,38.20
2019-04-10T04:00:05.760Z,38.10
2019-04-10T04:02:35.917Z,38.50
2019-04-10T04:05:06.524Z,37.80
2019-04-10T04:07:36.839Z,37.60
2019-04-10T04:10:06.495Z,37.40
2019-04-10T04:12:37.012Z,37.10
2019-04-10T04:15:06.652Z,36.90
2019-04-10T04:17:36.386Z,36.70
2019-04-10T04:20:06.507Z,36.50
2019-04-10T04:22:36.981Z,36.30
2019-04-10T04:25:08.662Z,36.30
2019-04-10T04:27:38.298Z,36.10
2019-04-10T04:30:08.434Z,36.10
2019-04-10T04:32:38.474Z,35.80
2019-04-10T04:35:08.996Z,35.60
2019-04-10T04:37:39.006Z,35.50
2019-04-10T04:40:09.045Z,35.30
2019-04-10T04:42:38.763Z,35.20
2019-04-10T04:45:08.671Z,34.90
2019-04-10T04:47:39.160Z,34.40
2019-04-10T04:50:09.784Z,34.10
2019-04-10T04:52:41.196Z,33.80
2019-04-10T04:55:12.101Z,33.70
2019-04-10T04:57:42.272Z,33.60
2019-04-10T05:00:13.087Z,32.90
2019-04-10T05:02:42.777Z,32.60
2019-04-10T05:05:12.322Z,32.30
2019-04-10T05:07:42.061Z,31.80
2019-04-10T05:10:11.627Z,31.90
2019-04-10T05:12:43.468Z,32.00
2019-04-10T05:15:31.704Z,31.70
2019-04-10T05:17:58.374Z,31.30
2019-04-10T05:20:40.273Z,31.30
2019-04-10T05:22:59.884Z,30.90
2019-04-10T05:25:38.878Z,30.90
2019-04-10T05:28:08.485Z,30.70
2019-04-10T05:30:38.490Z,30.70
2019-04-10T05:33:08.871Z,30.70
2019-04-10T05:35:38.510Z,30.70
2019-04-10T05:38:08.102Z,30.60
2019-04-10T05:40:37.820Z,30.40
2019-04-10T05:43:07.384Z,30.20
2019-04-10T05:45:37.810Z,30.00
2019-04-10T05:48:08.796Z,29.80
2019-04-10T05:50:39.874Z,29.10
2019-04-10T05:53:09.838Z,28.90
2019-04-10T05:55:39.451Z,28.90
2019-04-10T05:58:09.248Z,28.50
2019-04-10T06:00:38.922Z,28.40
2019-04-10T06:03:08.492Z,28.50
2019-04-10T06:05:38.292Z,28.30
2019-04-10T06:08:08.033Z,28.20
2019-04-10T06:10:37.847Z,28.00
2019-04-10T06:13:07.475Z,28.00
2019-04-10T06:15:37.288Z,28.00
2019-04-10T06:18:07.116Z,27.80
2019-04-10T06:20:37.622Z,27.80
2019-04-10T06:23:07.611Z,27.60
2019-04-10T06:25:39.477Z,27.70
2019-04-10T06:28:09.420Z,27.70
2019-04-10T06:30:39.790Z,27.60
2019-04-10T06:33:09.708Z,27.50
2019-04-10T06:35:39.852Z,27.60
2019-04-10T06:38:23.117Z,27.80
2019-04-10T06:40:52.759Z,27.90
2019-04-10T06:43:23.648Z,27.90
2019-04-10T06:45:53.319Z,28.10
2019-04-10T06:48:23.654Z,28.30
2019-04-10T06:50:53.536Z,28.30
2019-04-10T06:53:23.200Z,28.20
2019-04-10T06:55:52.989Z,28.40
2019-04-10T06:58:23.667Z,28.30
2019-04-10T07:00:55.172Z,28.40
2019-04-10T07:03:28.915Z,28.50
2019-04-10T07:06:06.402Z,28.50
2019-04-10T07:08:29.627Z,28.60
2019-04-10T07:11:07.807Z,28.70
2019-04-10T07:13:30.664Z,28.70
2019-04-10T07:16:04.259Z,28.80
2019-04-10T07:18:36.650Z,28.80
2019-04-10T07:21:12.498Z,28.90
2019-04-10T07:23:42.852Z,29.00
2019-04-10T07:26:18.502Z,29.00
2019-04-10T07:28:46.409Z,29.20
2019-04-10T07:31:15.446Z,29.30
2019-04-10T07:33:50.079Z,29.50
2019-04-10T07:36:16.470Z,29.50
2019-04-10T07:39:01.469Z,29.50
2019-04-10T07:41:33.415Z,29.70
2019-04-10T07:44:05.945Z,29.70
2019-04-10T07:46:35.562Z,29.60
2019-04-10T07:49:06.314Z,29.80
2019-04-10T07:51:36.695Z,29.90
2019-04-10T07:54:06.309Z,30.00
2019-04-10T07:56:36.092Z,30.40
2019-04-10T07:59:06.768Z,31.00
2019-04-10T08:01:37.268Z,31.40
2019-04-10T08:04:08.372Z,31.00
2019-04-10T08:06:37.942Z,30.50
2019-04-10T08:09:08.418Z,29.70
2019-04-10T08:11:38.240Z,29.40
2019-04-10T08:14:08.576Z,28.80
2019-04-10T08:16:39.402Z,27.80
2019-04-10T08:19:10.325Z,27.30
2019-04-10T08:21:40.343Z,26.50
2019-04-10T08:24:10.072Z,26.10
2019-04-10T08:26:40.827Z,25.60
2019-04-10T08:29:10.426Z,25.00
2019-04-10T08:31:40.130Z,24.80
2019-04-10T08:34:25.991Z,24.30
2019-04-10T08:36:56.807Z,23.70
2019-04-10T08:39:33.942Z,23.80
2019-04-10T08:41:58.123Z,23.30
2019-04-10T08:44:27.914Z,23.00
2019-04-10T08:46:58.236Z,22.70
2019-04-10T08:49:28.285Z,22.00
2019-04-10T08:51:58.085Z,21.70
2019-04-10T08:54:28.135Z,21.60
2019-04-10T08:56:57.972Z,21.70
2019-04-10T08:59:27.851Z,21.40
2019-04-10T09:01:57.851Z,21.60
2019-04-10T09:04:28.678Z,22.10
2019-04-10T09:07:01.309Z,22.30
2019-04-10T09:09:29.992Z,22.50
2019-04-10T09:11:59.857Z,22.70
2019-04-10T09:14:47.623Z,22.80
2019-04-10T09:17:17.477Z,22.90
2019-04-10T09:19:47.221Z,22.90
2019-04-10T09:22:16.835Z,22.90
2019-04-10T09:24:46.773Z,23.00
2019-04-10T09:27:17.187Z,23.20
2019-04-10T09:29:46.834Z,23.50
2019-04-10T09:32:16.461Z,23.70
2019-04-10T09:34:46.780Z,23.70
2019-04-10T09:37:17.818Z,23.80
2019-04-10T09:39:47.948Z,24.10
2019-04-10T09:42:19.396Z,24.40
2019-04-10T09:44:49.319Z,24.40
2019-04-10T09:47:19.069Z,24.40
2019-04-10T09:49:49.299Z,24.20
2019-04-10T09:52:19.199Z,24.30
2019-04-10T09:54:49.004Z,24.40
2019-04-10T09:57:20.099Z,24.90
2019-04-10T09:59:49.898Z,24.80
2019-04-10T10:02:19.686Z,24.60
2019-04-10T10:04:50.428Z,24.60
2019-04-10T10:07:20.717Z,24.50
2019-04-10T10:09:51.343Z,24.50
2019-04-10T10:12:21.057Z,24.40
2019-04-10T10:14:51.799Z,24.40
2019-04-10T10:17:22.402Z,25.00
2019-04-10T10:19:53.563Z,24.60
2019-04-10T10:22:25.188Z,24.60
2019-04-10T10:24:56.252Z,24.50
2019-04-10T10:27:26.825Z,24.70
2019-04-10T10:29:57.847Z,24.70
2019-04-10T10:32:28.919Z,24.70
2019-04-10T10:34:58.994Z,24.80
2019-04-10T10:37:30.501Z,24.90
2019-04-10T10:40:01.309Z,25.00
2019-04-10T10:42:31.753Z,25.10
2019-04-10T10:45:02.777Z,25.20
2019-04-10T10:47:32.681Z,25.30
2019-04-10T10:50:02.270Z,25.20
2019-04-10T10:52:33.366Z,25.20
2019-04-10T10:55:03.272Z,25.30
2019-04-10T10:57:35.244Z,25.20
2019-04-10T11:00:06.608Z,25.10
2019-04-10T11:02:36.422Z,25.00
2019-04-10T11:05:07.149Z,24.90
2019-04-10T11:07:36.863Z,25.10
2019-04-10T11:10:06.960Z,25.10
2019-04-10T11:12:38.228Z,24.70
2019-04-10T11:15:08.367Z,24.70
2019-04-10T11:17:38.605Z,24.50
2019-04-10T11:20:10.369Z,24.60
2019-04-10T11:22:42.022Z,25.30
2019-04-10T11:25:12.268Z,24.80
2019-04-10T11:27:42.676Z,24.90
2019-04-10T11:30:13.671Z,25.00
2019-04-10T11:32:44.464Z,25.10
2019-04-10T11:35:15.585Z,24.80
2019-04-10T11:37:49.651Z,24.70
2019-04-10T11:42:48.546Z,24.80
2019-04-10T11:45:19.193Z,25.00
2019-04-10T11:47:51.246Z,25.00
2019-04-10T11:50:21.846Z,25.10
2019-04-10T11:52:53.494Z,24.70
2019-04-10T11:55:27.035Z,24.60
2019-04-10T11:57:55.397Z,24.50
2019-04-10T12:03:10.464Z,24.00
2019-04-10T12:05:41.401Z,23.80
2019-04-10T12:13:17.014Z,23.60
2019-04-10T12:15:46.295Z,23.40
2019-04-10T12:18:16.163Z,23.50
2019-04-10T12:20:46.142Z,23.60
2019-04-10T12:23:18.966Z,23.70
2019-04-10T12:25:49.367Z,23.80
2019-04-10T12:28:20.100Z,23.40
2019-04-10T12:30:49.668Z,23.50
2019-04-10T12:33:19.315Z,23.40
2019-04-10T12:35:49.975Z,23.20
2019-04-10T12:38:19.800Z,22.90
2019-04-10T12:40:49.336Z,22.90
2019-04-10T12:43:18.863Z,22.60
2019-04-10T12:45:48.780Z,22.40
2019-04-10T12:48:19.459Z,22.20
2019-04-10T12:50:49.504Z,22.40
2019-04-10T12:53:19.286Z,22.50
2019-04-10T12:55:49.412Z,22.70
2019-04-10T12:58:20.634Z,22.80
2019-04-10T13:00:52.157Z,22.70
2019-04-10T13:03:22.982Z,22.90
2019-04-10T13:05:53.578Z,22.40
2019-04-10T13:08:34.984Z,22.40
2019-04-10T13:10:54.435Z,22.60
2019-04-10T13:13:24.327Z,22.80
2019-04-10T13:15:54.286Z,22.70
2019-04-10T13:18:24.686Z,22.70
2019-04-10T13:20:54.363Z,22.70
2019-04-10T13:23:24.664Z,22.80
2019-04-10T13:25:59.531Z,23.10
2019-04-10T13:28:26.203Z,23.20
2019-04-10T13:30:57.829Z,23.50
2019-04-10T13:33:28.786Z,23.50
2019-04-10T13:35:59.472Z,23.40
2019-04-10T13:38:33.709Z,23.10
2019-04-10T13:41:02.069Z,22.80
2019-04-10T13:43:32.318Z,22.80
2019-04-10T13:46:02.603Z,22.70
2019-04-10T13:48:33.225Z,22.80
2019-04-10T13:51:03.498Z,22.80
2019-04-10T13:53:34.245Z,22.80
2019-04-10T13:56:04.872Z,23.40
2019-04-10T13:58:35.147Z,22.70
2019-04-10T14:01:07.103Z,22.30
2019-04-10T14:03:36.938Z,22.30
2019-04-10T14:06:07.501Z,22.40
2019-04-10T14:08:58.732Z,22.50
2019-04-10T14:11:09.396Z,22.70
2019-04-10T14:13:40.013Z,22.80
2019-04-10T14:16:10.678Z,22.90
2019-04-10T14:18:41.086Z,22.90
2019-04-10T14:21:15.318Z,23.00
2019-04-10T14:23:43.414Z,23.10
2019-04-10T14:26:46.014Z,23.10
2019-04-10T14:29:19.072Z,23.10
2019-04-10T14:31:54.868Z,23.10
2019-04-10T14:34:24.466Z,23.20
2019-04-10T14:36:54.791Z,23.10
2019-04-10T14:39:24.517Z,22.90
2019-04-10T14:41:54.405Z,22.80
2019-04-10T14:44:24.364Z,22.80
2019-04-10T14:46:54.258Z,23.10
2019-04-10T14:49:24.900Z,23.30
2019-04-10T14:51:54.819Z,23.50
2019-04-10T14:54:26.005Z,23.40
2019-04-10T14:56:56.838Z,23.30
2019-04-10T14:59:28.148Z,23.30
2019-04-10T15:01:58.089Z,23.30
2019-04-10T15:04:27.626Z,23.40
2019-04-10T15:06:57.582Z,23.50
2019-04-10T15:09:27.730Z,23.50
2019-04-10T15:11:57.450Z,23.60
2019-04-10T15:14:27.857Z,23.60
2019-04-10T15:17:01.756Z,23.60
2019-04-10T15:19:30.809Z,23.60
2019-04-10T15:22:01.179Z,23.50
2019-04-10T15:24:31.449Z,23.50
2019-04-10T15:27:01.303Z,23.40
2019-04-10T15:29:32.375Z,23.60
2019-04-10T15:32:02.181Z,23.70
2019-04-10T15:34:32.136Z,23.90
2019-04-10T15:37:01.933Z,24.20
2019-04-10T15:39:35.763Z,24.20
2019-04-10T15:42:28.016Z,24.30
2019-04-10T15:44:58.700Z,24.40
2019-04-10T15:47:29.077Z,24.50
2019-04-10T15:49:59.869Z,24.60
2019-04-10T15:52:29.569Z,24.50
2019-04-10T15:54:59.944Z,24.40
2019-04-10T15:57:29.599Z,24.50
2019-04-10T15:59:59.290Z,24.50
2019-04-10T16:02:29.882Z,24.50
2019-04-10T16:05:01.643Z,24.40
2019-04-10T16:07:32.356Z,24.40
2019-04-10T16:10:21.604Z,24.30
2019-04-10T16:12:52.369Z,24.30
2019-04-10T16:15:23.671Z,24.40
2019-04-10T16:18:05.535Z,24.50
2019-04-10T16:20:36.872Z,24.60
2019-04-10T16:23:12.141Z,24.60
2019-04-10T16:25:46.770Z,24.70
2019-04-10T16:28:17.955Z,24.70
2019-04-10T16:30:55.123Z,24.60
2019-04-10T16:33:25.520Z,24.60
2019-04-10T16:35:56.969Z,24.70
2019-04-10T16:38:30.990Z,24.70
2019-04-10T16:41:02.541Z,24.70
2019-04-10T16:43:33.156Z,25.10
2019-04-10T16:46:04.823Z,24.60
2019-04-10T16:48:35.852Z,24.70
2019-04-10T16:51:07.938Z,24.70
2019-04-10T16:53:41.269Z,24.70
2019-04-10T16:56:11.515Z,24.70
2019-04-10T16:58:42.824Z,24.70
2019-04-10T17:01:14.425Z,24.80
2019-04-10T17:03:44.960Z,24.90
2019-04-10T17:09:50.440Z,24.70
2019-04-10T17:12:21.956Z,24.80
2019-04-10T17:14:53.318Z,24.90
2019-04-10T17:17:24.835Z,25.00
2019-04-10T17:19:57.327Z,25.10
2019-04-10T17:22:34.322Z,25.00
2019-04-10T17:25:00.117Z,25.20
2019-04-10T17:27:40.610Z,25.20
2019-04-10T17:30:11.695Z,25.20
2019-04-10T17:32:42.647Z,25.20
2019-04-10T17:35:13.974Z,25.20
2019-04-10T17:37:45.685Z,25.30
2019-04-10T17:40:28.454Z,25.30
2019-04-10T17:42:48.910Z,25.40
2019-04-10T17:45:20.494Z,25.50
2019-04-10T17:47:51.464Z,25.50
2019-04-10T17:50:22.505Z,25.60
2019-04-10T17:52:53.402Z,25.60
2019-04-10T17:55:25.310Z,25.60
2019-04-10T17:57:57.827Z,25.60
2019-04-10T18:00:35.530Z,25.60
2019-04-10T18:03:07.480Z,25.70
2019-04-10T18:05:39.135Z,25.70
2019-04-10T18:08:10.623Z,25.70
2019-04-10T18:10:47.113Z,25.80
2019-04-10T18:13:13.401Z,25.80
2019-04-10T18:15:50.625Z,25.90
2019-04-10T18:18:21.960Z,25.80
2019-04-10T18:20:52.616Z,25.90
2019-04-10T18:23:23.048Z,26.00
2019-04-10T18:25:54.056Z,26.00
2019-04-10T18:28:23.976Z,26.00
2019-04-10T18:30:54.442Z,26.10
2019-04-10T18:33:24.546Z,26.10
2019-04-10T18:35:55.255Z,26.10
2019-04-10T18:38:25.805Z,26.20
2019-04-10T18:41:02.004Z,26.10
2019-04-10T18:43:29.938Z,26.20
2019-04-10T18:46:08.732Z,26.30
2019-04-10T18:48:30.954Z,26.30
2019-04-10T18:51:02.099Z,26.20
2019-04-10T18:53:33.079Z,26.40
2019-04-10T18:56:03.025Z,26.30
2019-04-10T18:58:40.182Z,26.30
2019-04-10T19:01:28.783Z,26.40
2019-04-10T19:04:16.322Z,26.40
2019-04-10T19:06:58.612Z,26.50
2019-04-10T19:09:33.928Z,26.50
2019-04-10T19:12:04.400Z,26.50
2019-04-10T19:14:36.658Z,26.50
2019-04-10T19:17:06.793Z,26.60
2019-04-10T19:19:40.320Z,26.60
2019-04-10T19:22:08.083Z,26.70
2019-04-10T19:24:39.385Z,26.80
2019-04-10T19:27:09.635Z,26.90
2019-04-10T19:29:40.365Z,26.90
2019-04-10T19:32:14.143Z,26.80
2019-04-10T19:34:43.726Z,26.80
2019-04-10T19:37:14.440Z,26.90
2019-04-10T19:39:44.627Z,26.90
2019-04-10T19:42:15.344Z,27.00
2019-04-10T19:44:45.600Z,26.90
2019-04-10T19:47:15.852Z,26.90
2019-04-10T19:49:46.384Z,26.90
2019-04-10T19:52:16.639Z,26.90
2019-04-10T19:54:47.246Z,27.00
2019-04-10T19:57:17.261Z,27.00
2019-04-10T19:59:46.831Z,27.00
2019-04-10T20:02:17.644Z,26.90
2019-04-10T20:04:48.433Z,26.90
2019-04-10T20:07:18.585Z,27.00
2019-04-10T20:09:48.626Z,26.90
2019-04-10T20:12:18.245Z,27.00
2019-04-10T20:14:48.532Z,26.90
2019-04-10T20:17:19.818Z,27.40
2019-04-10T20:19:49.340Z,26.90
2019-04-10T20:22:18.914Z,26.90
2019-04-10T20:24:50.154Z,26.90
2019-04-10T20:27:20.282Z,26.90
2019-04-10T20:29:51.039Z,26.90
2019-04-10T20:32:21.778Z,26.90
2019-04-10T20:34:51.788Z,26.90
2019-04-10T20:37:21.337Z,26.90
2019-04-10T20:39:51.733Z,27.00
2019-04-10T20:42:22.326Z,26.90
2019-04-10T20:44:53.328Z,27.00
2019-04-10T20:47:23.224Z,26.90
2019-04-10T20:49:55.253Z,27.00
2019-04-10T20:52:26.236Z,26.90
2019-04-10T20:54:57.188Z,27.00
2019-04-10T20:57:27.695Z,27.00
2019-04-10T20:59:58.033Z,27.00
2019-04-10T21:02:28.514Z,27.00
2019-04-10T21:05:03.114Z,27.00
2019-04-10T21:07:30.575Z,27.10
2019-04-10T21:10:00.827Z,27.10
2019-04-10T21:12:36.560Z,27.10
2019-04-10T21:15:06.156Z,27.10
2019-04-10T21:17:35.785Z,27.20
2019-04-10T21:20:07.899Z,27.20
2019-04-10T21:22:38.349Z,27.30
2019-04-10T21:25:08.215Z,27.30
2019-04-10T21:27:37.989Z,27.40
2019-04-10T21:30:22.394Z,27.40
2019-04-10T21:32:58.698Z,27.40
2019-04-10T21:35:33.283Z,27.40
2019-04-10T21:38:02.869Z,27.50
2019-04-10T21:40:32.793Z,27.60
2019-04-10T21:43:03.646Z,27.60
2019-04-10T21:45:35.036Z,27.70
2019-04-10T21:48:04.708Z,27.80
2019-04-10T21:50:35.520Z,28.50
2019-04-10T21:53:06.113Z,28.60
2019-04-10T21:55:35.803Z,28.70
2019-04-10T21:58:06.082Z,28.70
2019-04-10T22:01:05.248Z,28.80
2019-04-10T22:03:35.856Z,28.90
2019-04-10T22:06:24.177Z,28.80
2019-04-10T22:09:01.832Z,28.90
2019-04-10T22:11:33.467Z,28.90
2019-04-10T22:14:03.029Z,28.90
2019-04-10T22:16:33.674Z,28.80
2019-04-10T22:19:03.826Z,28.90
2019-04-10T22:21:53.713Z,29.00
2019-04-10T22:24:23.546Z,29.60
2019-04-10T22:26:54.282Z,29.20
2019-04-10T22:29:23.912Z,29.10
2019-04-10T22:31:53.502Z,29.30
2019-04-10T22:34:23.148Z,29.40
2019-04-10T22:36:53.520Z,29.40
2019-04-10T22:39:23.194Z,29.40
2019-04-10T22:41:52.713Z,29.50
2019-04-10T22:44:33.700Z,29.90
2019-04-10T22:46:54.428Z,29.50
2019-04-10T22:49:24.086Z,29.50
2019-04-10T22:51:54.603Z,29.50
2019-04-10T22:54:44.359Z,29.50
2019-04-10T22:57:14.541Z,29.50
2019-04-10T22:59:44.319Z,29.50
2019-04-10T23:02:15.865Z,29.70
2019-04-10T23:04:45.249Z,29.70
2019-04-10T23:07:14.821Z,29.80
2019-04-10T23:09:44.471Z,29.70
2019-04-10T23:12:16.198Z,29.90
2019-04-10T23:14:46.950Z,30.00
2019-04-10T23:17:16.849Z,30.00
2019-04-10T23:19:46.750Z,30.00
2019-04-10T23:22:17.390Z,30.00
2019-04-10T23:24:47.666Z,30.50
2019-04-10T23:27:17.700Z,30.10
2019-04-10T23:29:48.502Z,30.20
2019-04-10T23:32:18.067Z,30.10
2019-04-10T23:34:47.579Z,30.20
2019-04-10T23:37:18.736Z,30.10
2019-04-10T23:39:48.538Z,30.20
2019-04-10T23:42:19.326Z,30.20
2019-04-10T23:44:49.176Z,30.30
2019-04-10T23:47:18.739Z,30.30
2019-04-10T23:49:48.255Z,30.20
2019-04-10T23:52:17.954Z,30.30
2019-04-10T23:54:47.587Z,30.40
2019-04-10T23:57:17.382Z,30.40
2019-04-10T23:59:46.997Z,30.40
